Time;durP1;ratioP1;P1;durP2;ratioP2;P2;SDS_P1;SDS_P2;PMS_P1;PMS_P2;Temp;Humidity;BMP_temperature;BMP_pressure;BME280_temperature;BME280_humidity;BME280_pressure;Samples;Min_cycle;Max_cycle;Signal;HPM_P1;HPM_P2
2023/05/12 00:00:32;;;;;;;14.27;11.83;;;;;;;;;;5018010;28;20185;-82
2023/05/12 00:03:01;;;;;;;13.27;11.40;;;;;;;;;;5017571;28;20243;-82
2023/05/12 00:05:28;;;;;;;15.30;11.83;;;;;;;;;;5014590;28;20185;-81
2023/05/12 00:07:54;;;;;;;14.83;11.33;;;;;;;;;;5014563;28;20268;-79
2023/05/12 00:10:20;;;;;;;12.53;11.23;;;;;;;;;;5020473;28;20209;-79
2023/05/12 00:12:46;;;;;;;12.43;11.10;;;;;;;;;;5033957;28;20181;-79
2023/05/12 00:15:13;;;;;;;12.60;11.30;;;;;;;;;;5034147;28;20235;-79
2023/05/12 00:17:39;;;;;;;14.33;12.17;;;;;;;;;;5017442;28;20177;-79
2023/05/12 00:20:05;;;;;;;13.70;11.63;;;;;;;;;;5032773;28;20184;-79
2023/05/12 00:22:31;;;;;;;13.77;12.30;;;;;;;;;;5033889;28;20180;-79
2023/05/12 00:24:57;;;;;;;13.73;11.73;;;;;;;;;;5034027;28;20183;-85
2023/05/12 00:27:23;;;;;;;16.30;12.77;;;;;;;;;;5017305;28;20275;-85
2023/05/12 00:29:49;;;;;;;14.43;11.43;;;;;;;;;;5033387;28;20212;-84
2023/05/12 00:32:15;;;;;;;14.63;11.87;;;;;;;;;;5013620;28;20189;-84
2023/05/12 00:34:42;;;;;;;11.17;9.93;;;;;;;;;;5014042;28;20235;-85
2023/05/12 00:37:08;;;;;;;10.53;9.53;;;;;;;;;;5013728;28;20183;-86
2023/05/12 00:39:35;;;;;;;10.40;9.13;;;;;;;;;;5029749;28;20275;-85
2023/05/12 00:42:01;;;;;;;9.33;8.33;;;;;;;;;;5017051;28;20215;-81
2023/05/12 00:44:28;;;;;;;10.20;8.00;;;;;;;;;;5016766;28;20228;-81
2023/05/12 00:46:54;;;;;;;8.43;7.10;;;;;;;;;;5034239;28;20185;-81
2023/05/12 00:49:20;;;;;;;8.20;7.23;;;;;;;;;;5032777;28;20254;-81
2023/05/12 00:51:46;;;;;;;8.60;6.70;;;;;;;;;;5034442;28;20178;-81
2023/05/12 00:54:12;;;;;;;7.43;6.67;;;;;;;;;;5016664;28;20279;-81
2023/05/12 00:56:39;;;;;;;6.37;5.77;;;;;;;;;;5016828;28;20184;-81
2023/05/12 00:59:05;;;;;;;7.07;6.30;;;;;;;;;;5033007;28;20261;-81
2023/05/12 01:01:32;;;;;;;6.77;6.07;;;;;;;;;;5032637;28;20193;-81
2023/05/12 01:03:58;;;;;;;7.13;5.47;;;;;;;;;;5032987;28;20192;-81
2023/05/12 01:06:35;;;;;;;5.73;5.17;;;;;;;;;;5032749;28;20177;-80
2023/05/12 01:09:02;;;;;;;4.93;4.43;;;;;;;;;;5030722;28;20302;-81
2023/05/12 01:11:28;;;;;;;5.40;4.70;;;;;;;;;;5016387;28;20207;-80
2023/05/12 01:13:54;;;;;;;5.60;4.83;;;;;;;;;;5033228;28;20183;-80
2023/05/12 01:16:22;;;;;;;5.20;4.70;;;;;;;;;;5033171;28;20267;-80
2023/05/12 01:18:52;;;;;;;5.50;4.80;;;;;;;;;;5032434;28;20252;-80
2023/05/12 01:21:19;;;;;;;5.60;5.00;;;;;;;;;;5033293;28;20180;-80
2023/05/12 01:24:00;;;;;;;5.10;4.60;;;;;;;;;;5016202;28;20216;-80
2023/05/12 01:26:28;;;;;;;5.33;4.83;;;;;;;;;;5032663;28;20184;-80
2023/05/12 01:28:55;;;;;;;4.90;4.50;;;;;;;;;;5032152;28;20220;-81
2023/05/12 01:31:21;;;;;;;6.87;4.70;;;;;;;;;;5034285;28;20208;-85
2023/05/12 01:33:48;;;;;;;6.37;5.50;;;;;;;;;;5036382;28;20185;-85
2023/05/12 01:36:14;;;;;;;5.57;5.03;;;;;;;;;;5020414;28;20190;-85
2023/05/12 01:38:40;;;;;;;7.87;5.93;;;;;;;;;;5020605;28;20216;-85
2023/05/12 01:41:06;;;;;;;6.43;5.50;;;;;;;;;;5019701;28;20191;-81
2023/05/12 01:43:32;;;;;;;7.97;6.23;;;;;;;;;;5019895;28;20193;-85
2023/05/12 01:45:58;;;;;;;8.27;5.73;;;;;;;;;;5036516;28;20228;-80
2023/05/12 01:48:24;;;;;;;8.80;6.03;;;;;;;;;;5016007;28;20216;-79
2023/05/12 01:50:50;;;;;;;7.73;6.27;;;;;;;;;;5019309;28;20176;-79
2023/05/12 01:53:16;;;;;;;7.50;6.70;;;;;;;;;;5020006;28;20184;-79
2023/05/12 01:55:42;;;;;;;7.40;6.47;;;;;;;;;;5018011;28;20182;-79
2023/05/12 01:58:08;;;;;;;9.33;7.17;;;;;;;;;;5035729;28;20182;-79
2023/05/12 02:00:37;;;;;;;10.87;7.87;;;;;;;;;;5035852;28;20203;-78
2023/05/12 02:03:03;;;;;;;10.90;7.37;;;;;;;;;;5018440;28;20192;-78
2023/05/12 02:05:29;;;;;;;12.30;8.77;;;;;;;;;;5036987;28;20172;-78
2023/05/12 02:07:55;;;;;;;12.50;8.90;;;;;;;;;;5036801;28;20172;-79
2023/05/12 02:10:21;;;;;;;12.23;9.50;;;;;;;;;;5019262;28;20208;-79
2023/05/12 02:12:47;;;;;;;14.07;10.33;;;;;;;;;;5034944;28;20275;-78
2023/05/12 02:15:13;;;;;;;14.10;10.30;;;;;;;;;;5035194;28;20172;-78
2023/05/12 02:17:39;;;;;;;15.80;11.00;;;;;;;;;;5035545;28;20188;-78
2023/05/12 02:20:05;;;;;;;16.70;11.30;;;;;;;;;;5019569;28;20192;-79
2023/05/12 02:22:31;;;;;;;16.93;11.47;;;;;;;;;;5018958;28;20180;-80
2023/05/12 02:24:57;;;;;;;16.80;12.13;;;;;;;;;;5018923;28;20256;-79
2023/05/12 02:27:23;;;;;;;19.27;13.03;;;;;;;;;;5018399;28;20288;-79
2023/05/12 02:29:50;;;;;;;20.30;12.80;;;;;;;;;;5018682;28;20204;-79
2023/05/12 02:32:16;;;;;;;22.87;13.73;;;;;;;;;;5035134;28;20185;-79
2023/05/12 02:34:42;;;;;;;19.63;14.07;;;;;;;;;;5018760;28;20172;-79
2023/05/12 02:37:08;;;;;;;21.27;14.53;;;;;;;;;;5035324;28;20180;-85
2023/05/12 02:39:34;;;;;;;21.80;15.07;;;;;;;;;;5020962;28;20207;-85
2023/05/12 02:42:00;;;;;;;25.97;16.17;;;;;;;;;;5036836;28;20260;-86
2023/05/12 02:44:26;;;;;;;27.60;16.60;;;;;;;;;;5019858;28;20247;-86
2023/05/12 02:46:52;;;;;;;28.27;18.67;;;;;;;;;;5037012;28;20239;-86
2023/05/12 02:49:18;;;;;;;29.80;18.00;;;;;;;;;;5035634;28;20235;-85
2023/05/12 02:51:44;;;;;;;29.33;17.87;;;;;;;;;;5019751;28;20185;-85
2023/05/12 02:54:10;;;;;;;32.07;18.77;;;;;;;;;;5035428;28;20192;-85
2023/05/12 02:56:36;;;;;;;30.10;18.77;;;;;;;;;;5035290;28;20185;-85
2023/05/12 02:59:03;;;;;;;34.07;19.87;;;;;;;;;;5019804;28;20299;-85
2023/05/12 03:01:29;;;;;;;33.33;20.10;;;;;;;;;;5034301;28;20180;-84
2023/05/12 03:03:55;;;;;;;32.83;20.17;;;;;;;;;;5018574;28;20209;-85
2023/05/12 03:06:21;;;;;;;33.83;21.37;;;;;;;;;;5034505;28;20188;-84
2023/05/12 03:08:47;;;;;;;34.47;20.97;;;;;;;;;;5018545;28;20220;-85
2023/05/12 03:11:13;;;;;;;35.73;22.63;;;;;;;;;;5018613;28;20223;-79
2023/05/12 03:13:39;;;;;;;37.47;22.23;;;;;;;;;;5015675;28;20219;-79
2023/05/12 03:16:05;;;;;;;36.00;22.43;;;;;;;;;;5034530;28;20189;-79
2023/05/12 03:18:31;;;;;;;41.10;23.93;;;;;;;;;;5034686;28;20225;-79
2023/05/12 03:21:00;;;;;;;40.20;24.67;;;;;;;;;;5017792;28;20289;-79
2023/05/12 03:23:26;;;;;;;39.33;24.47;;;;;;;;;;5018959;28;20258;-79
2023/05/12 03:25:52;;;;;;;46.57;26.27;;;;;;;;;;5034659;28;20216;-79
2023/05/12 03:28:18;;;;;;;45.17;26.67;;;;;;;;;;5018008;28;20192;-85
2023/05/12 03:30:44;;;;;;;48.10;27.63;;;;;;;;;;5018914;28;20260;-85
2023/05/12 03:33:10;;;;;;;47.80;27.77;;;;;;;;;;5034700;28;20259;-85
2023/05/12 03:35:36;;;;;;;52.07;28.57;;;;;;;;;;5018247;28;20190;-85
2023/05/12 03:38:02;;;;;;;51.87;29.27;;;;;;;;;;5018062;28;20185;-85
2023/05/12 03:40:28;;;;;;;51.27;29.23;;;;;;;;;;5018102;28;20207;-85
2023/05/12 03:42:54;;;;;;;48.67;28.93;;;;;;;;;;5018010;28;20185;-85
2023/05/12 03:45:20;;;;;;;52.10;30.70;;;;;;;;;;5018060;28;20243;-81
2023/05/12 03:47:46;;;;;;;55.93;31.37;;;;;;;;;;5017108;28;20193;-80
2023/05/12 03:50:12;;;;;;;50.37;30.60;;;;;;;;;;5034257;28;20250;-80
2023/05/12 03:52:40;;;;;;;56.40;30.63;;;;;;;;;;5018186;28;20234;-80
2023/05/12 03:55:06;;;;;;;54.53;30.73;;;;;;;;;;5018023;28;20302;-80
2023/05/12 03:57:33;;;;;;;54.80;32.60;;;;;;;;;;5033867;28;20241;-80
2023/05/12 03:59:59;;;;;;;54.10;31.57;;;;;;;;;;5031335;28;20180;-81
2023/05/12 04:02:25;;;;;;;56.00;32.07;;;;;;;;;;5027917;28;20199;-85
2023/05/12 04:04:51;;;;;;;53.80;32.67;;;;;;;;;;5034212;28;20196;-86
2023/05/12 04:07:17;;;;;;;54.90;33.20;;;;;;;;;;5018043;28;20180;-85
2023/05/12 04:09:43;;;;;;;59.97;34.67;;;;;;;;;;5034852;28;20212;-85
2023/05/12 04:12:10;;;;;;;60.20;34.47;;;;;;;;;;5013892;28;20239;-85
2023/05/12 04:14:36;;;;;;;60.60;34.27;;;;;;;;;;5018773;28;20181;-85
2023/05/12 04:17:02;;;;;;;62.90;34.60;;;;;;;;;;5034991;28;20177;-84
2023/05/12 04:19:28;;;;;;;59.60;34.37;;;;;;;;;;5017073;28;20319;-85
2023/05/12 04:21:54;;;;;;;65.23;36.60;;;;;;;;;;5033306;28;20188;-85
2023/05/12 04:24:20;;;;;;;65.17;37.07;;;;;;;;;;5033877;28;20187;-85
2023/05/12 04:26:46;;;;;;;62.63;35.20;;;;;;;;;;5017391;28;20189;-85
2023/05/12 04:29:12;;;;;;;67.07;36.43;;;;;;;;;;5033096;28;20286;-85
2023/05/12 04:31:38;;;;;;;66.37;36.90;;;;;;;;;;5033438;28;20193;-85
2023/05/12 04:34:04;;;;;;;64.57;37.60;;;;;;;;;;5017793;28;20180;-81
2023/05/12 04:36:30;;;;;;;65.87;37.80;;;;;;;;;;5033622;28;20260;-81
2023/05/12 04:38:56;;;;;;;64.13;38.43;;;;;;;;;;5017373;28;20189;-81
2023/05/12 04:41:22;;;;;;;67.03;40.13;;;;;;;;;;5017041;28;20184;-81
2023/05/12 04:43:48;;;;;;;68.60;40.73;;;;;;;;;;5016807;28;20254;-81
2023/05/12 04:46:14;;;;;;;66.53;39.53;;;;;;;;;;5017083;28;20232;-85
2023/05/12 04:48:42;;;;;;;62.93;38.40;;;;;;;;;;5013097;28;20217;-86
2023/05/12 04:51:08;;;;;;;66.63;40.03;;;;;;;;;;5031596;28;20375;-81
2023/05/12 04:53:35;;;;;;;69.13;39.13;;;;;;;;;;5017042;28;20195;-85
2023/05/12 04:56:01;;;;;;;69.90;39.00;;;;;;;;;;5033422;28;20181;-86
2023/05/12 04:58:27;;;;;;;63.27;38.50;;;;;;;;;;5033060;28;20192;-85
2023/05/12 05:00:53;;;;;;;66.00;39.30;;;;;;;;;;5029013;28;20192;-85
2023/05/12 05:03:19;;;;;;;70.57;39.60;;;;;;;;;;5031795;28;20207;-85
2023/05/12 05:05:45;;;;;;;61.87;39.07;;;;;;;;;;5027030;28;20180;-85
2023/05/12 05:08:11;;;;;;;65.90;39.07;;;;;;;;;;5034046;28;20173;-81
2023/05/12 05:10:37;;;;;;;58.77;36.67;;;;;;;;;;5032551;28;20185;-81
2023/05/12 05:13:03;;;;;;;58.70;37.03;;;;;;;;;;5006553;28;20247;-81
2023/05/12 05:15:29;;;;;;;58.17;38.03;;;;;;;;;;5018966;28;20192;-81
2023/05/12 05:17:55;;;;;;;61.13;39.00;;;;;;;;;;5016871;28;20180;-81
2023/05/12 05:20:21;;;;;;;60.40;38.27;;;;;;;;;;5016238;28;20212;-81
2023/05/12 05:22:48;;;;;;;57.30;37.23;;;;;;;;;;5016931;28;20219;-81
2023/05/12 05:25:14;;;;;;;53.23;36.97;;;;;;;;;;5016532;28;20187;-79
2023/05/12 05:27:40;;;;;;;55.80;37.20;;;;;;;;;;5016390;28;20252;-79
2023/05/12 05:30:08;;;;;;;54.13;37.67;;;;;;;;;;5032530;28;20295;-80
2023/05/12 05:32:35;;;;;;;52.30;36.03;;;;;;;;;;5032369;28;20180;-80
2023/05/12 05:35:01;;;;;;;52.13;35.97;;;;;;;;;;5016521;28;20184;-81
2023/05/12 05:37:27;;;;;;;51.37;37.27;;;;;;;;;;5015734;28;20196;-80
2023/05/12 05:39:53;;;;;;;50.33;36.20;;;;;;;;;;5032484;28;20192;-81
2023/05/12 05:42:19;;;;;;;46.00;34.63;;;;;;;;;;5013988;28;20204;-80
2023/05/12 05:44:45;;;;;;;48.87;35.57;;;;;;;;;;5009088;28;20232;-80
2023/05/12 05:47:11;;;;;;;49.47;36.30;;;;;;;;;;5010642;28;20250;-80
2023/05/12 05:49:37;;;;;;;50.33;35.70;;;;;;;;;;5025224;28;20209;-80
2023/05/12 05:52:03;;;;;;;49.20;35.80;;;;;;;;;;5006223;28;20276;-81
2023/05/12 05:54:29;;;;;;;49.10;36.43;;;;;;;;;;5002710;28;20230;-80
2023/05/12 05:56:55;;;;;;;50.00;36.17;;;;;;;;;;5019174;28;20177;-81
2023/05/12 05:59:21;;;;;;;49.00;36.37;;;;;;;;;;5020958;28;20275;-79
2023/05/12 06:01:47;;;;;;;47.57;35.93;;;;;;;;;;5031615;28;20191;-79
2023/05/12 06:04:13;;;;;;;49.70;36.50;;;;;;;;;;5029863;28;20215;-78
2023/05/12 06:06:39;;;;;;;46.83;35.23;;;;;;;;;;5015979;28;20195;-79
2023/05/12 06:09:07;;;;;;;46.77;34.63;;;;;;;;;;5015981;28;20204;-79
2023/05/12 06:11:33;;;;;;;47.17;36.03;;;;;;;;;;5016104;28;20200;-79
2023/05/12 06:13:59;;;;;;;48.97;36.53;;;;;;;;;;5032921;28;20216;-80
2023/05/12 06:16:25;;;;;;;45.37;34.80;;;;;;;;;;5015020;28;20279;-80
2023/05/12 06:18:51;;;;;;;45.13;35.80;;;;;;;;;;5018763;28;20188;-80
2023/05/12 06:21:17;;;;;;;44.97;34.83;;;;;;;;;;5040931;28;20234;-79
2023/05/12 06:23:43;;;;;;;46.53;35.50;;;;;;;;;;5018969;28;20184;-81
2023/05/12 06:26:10;;;;;;;44.17;34.10;;;;;;;;;;5035567;28;20193;-81
2023/05/12 06:28:36;;;;;;;41.40;35.70;;;;;;;;;;5035858;28;20434;-82
2023/05/12 06:31:02;;;;;;;43.43;34.03;;;;;;;;;;5036490;28;20204;-79
2023/05/12 06:33:28;;;;;;;38.33;31.83;;;;;;;;;;5019139;28;20180;-79
2023/05/12 06:35:54;;;;;;;38.80;32.70;;;;;;;;;;5018831;28;20219;-80
2023/05/12 06:38:20;;;;;;;38.93;31.60;;;;;;;;;;5019270;28;20212;-80
2023/05/12 06:40:46;;;;;;;40.47;32.40;;;;;;;;;;5035216;28;20265;-79
2023/05/12 06:43:12;;;;;;;37.17;31.07;;;;;;;;;;5035552;28;20165;-80
2023/05/12 06:45:38;;;;;;;36.00;31.07;;;;;;;;;;5018857;28;20371;-79
2023/05/12 06:48:05;;;;;;;36.60;30.67;;;;;;;;;;5003200;28;20245;-81
2023/05/12 06:50:31;;;;;;;36.97;30.20;;;;;;;;;;5018712;28;20278;-81
2023/05/12 06:52:57;;;;;;;35.50;28.93;;;;;;;;;;5035081;28;20272;-81
2023/05/12 06:55:23;;;;;;;31.07;27.77;;;;;;;;;;5018994;28;20211;-81
2023/05/12 06:57:54;;;;;;;30.07;26.27;;;;;;;;;;5018770;28;20188;-81
2023/05/12 07:00:20;;;;;;;27.83;24.83;;;;;;;;;;5019121;28;20188;-81
2023/05/12 07:02:46;;;;;;;26.90;24.00;;;;;;;;;;5017839;28;20219;-81
2023/05/12 07:05:12;;;;;;;27.87;24.87;;;;;;;;;;5011420;28;20197;-82
2023/05/12 07:07:38;;;;;;;25.23;22.57;;;;;;;;;;5015489;28;20212;-82
2023/05/12 07:10:05;;;;;;;26.00;23.10;;;;;;;;;;4999176;28;20252;-82
2023/05/12 07:12:31;;;;;;;25.83;23.07;;;;;;;;;;4999075;28;20186;-82
2023/05/12 07:14:57;;;;;;;24.60;22.10;;;;;;;;;;5015102;28;20216;-82
2023/05/12 07:17:23;;;;;;;24.70;22.20;;;;;;;;;;5015419;28;20268;-82
2023/05/12 07:19:50;;;;;;;25.07;22.47;;;;;;;;;;4998917;28;20338;-82
2023/05/12 07:22:16;;;;;;;23.77;21.47;;;;;;;;;;4999159;28;20185;-86
2023/05/12 07:24:43;;;;;;;22.67;20.37;;;;;;;;;;4998904;28;20201;-86
2023/05/12 07:27:09;;;;;;;22.83;20.50;;;;;;;;;;5016752;28;20184;-85
2023/05/12 07:29:35;;;;;;;21.97;19.80;;;;;;;;;;4998889;28;20205;-85
2023/05/12 07:32:01;;;;;;;21.53;19.43;;;;;;;;;;4999004;28;20182;-85
2023/05/12 07:34:27;;;;;;;22.53;20.13;;;;;;;;;;4998640;28;20196;-85
2023/05/12 07:36:53;;;;;;;20.93;18.93;;;;;;;;;;4998326;28;20276;-86
2023/05/12 07:39:22;;;;;;;20.97;19.00;;;;;;;;;;4998321;28;20190;-82
2023/05/12 07:41:49;;;;;;;21.70;19.53;;;;;;;;;;4999710;28;20204;-82
2023/05/12 07:44:16;;;;;;;21.50;19.20;;;;;;;;;;4998429;28;20244;-82
2023/05/12 07:46:42;;;;;;;21.55;19.45;;;;;;;;;;5015015;28;20485;-82
2023/05/12 07:49:08;;;;;;;20.98;19.02;;;;;;;;;;4997476;28;20530;-82
2023/05/12 07:51:34;;;;;;;19.83;17.83;;;;;;;;;;4998335;28;20219;-82
2023/05/12 07:54:00;;;;;;;18.50;16.70;;;;;;;;;;5014693;28;20231;-82
2023/05/12 07:56:26;;;;;;;18.23;16.53;;;;;;;;;;4999740;28;20192;-82
2023/05/12 07:58:52;;;;;;;16.77;15.13;;;;;;;;;;5034102;28;20185;-82
2023/05/12 08:01:18;;;;;;;17.02;15.32;;;;;;;;;;5017226;28;20488;-82
2023/05/12 08:03:44;;;;;;;16.52;15.00;;;;;;;;;;5033056;28;20414;-82
2023/05/12 08:06:10;;;;;;;16.13;14.68;;;;;;;;;;5032987;28;20406;-82
2023/05/12 08:08:36;;;;;;;18.25;16.55;;;;;;;;;;5034051;28;20416;-82
2023/05/12 08:11:02;;;;;;;16.40;14.93;;;;;;;;;;5034216;28;20404;-86
2023/05/12 08:13:28;;;;;;;17.80;16.13;;;;;;;;;;5016801;28;20401;-85
2023/05/12 08:15:54;;;;;;;15.90;14.40;;;;;;;;;;5033596;28;20408;-86
2023/05/12 08:18:20;;;;;;;12.23;11.13;;;;;;;;;;5017663;28;20186;-82
2023/05/12 08:20:48;;;;;;;11.93;10.83;;;;;;;;;;5033881;28;20169;-82
2023/05/12 08:23:16;;;;;;;11.30;10.20;;;;;;;;;;5033710;28;20227;-82
2023/05/12 08:25:43;;;;;;;11.52;10.52;;;;;;;;;;5032739;28;20409;-82
2023/05/12 08:28:09;;;;;;;10.82;9.82;;;;;;;;;;5032867;28;20418;-82
2023/05/12 08:30:35;;;;;;;10.43;9.20;;;;;;;;;;5033832;28;20204;-82
2023/05/12 08:33:02;;;;;;;10.05;9.05;;;;;;;;;;5033343;28;20416;-82
2023/05/12 08:35:29;;;;;;;9.15;8.45;;;;;;;;;;5032933;28;20405;-82
2023/05/12 08:37:56;;;;;;;8.10;7.40;;;;;;;;;;5017140;28;20176;-83
2023/05/12 08:40:23;;;;;;;8.70;7.80;;;;;;;;;;5032495;28;20420;-82
2023/05/12 08:43:13;;;;;;;8.30;7.50;;;;;;;;;;5033857;28;20397;-82
2023/05/12 08:45:39;;;;;;;7.45;6.80;;;;;;;;;;5032615;28;20448;-82
2023/05/12 08:48:07;;;;;;;6.57;5.25;;;;;;;;;;5033295;28;20496;-82
2023/05/12 08:50:35;;;;;;;6.00;5.50;;;;;;;;;;5032607;28;20431;-80
2023/05/12 08:53:02;;;;;;;5.97;5.43;;;;;;;;;;5032416;28;20412;-79
2023/05/12 08:55:28;;;;;;;6.05;5.55;;;;;;;;;;5032263;28;20408;-79
2023/05/12 08:57:55;;;;;;;5.30;4.82;;;;;;;;;;5032225;28;20497;-79
2023/05/12 09:00:24;;;;;;;5.47;4.85;;;;;;;;;;5032308;28;20475;-79
2023/05/12 09:02:50;;;;;;;5.60;5.03;;;;;;;;;;5032038;28;20449;-86
2023/05/12 09:05:16;;;;;;;5.68;5.00;;;;;;;;;;5032036;28;20441;-86
2023/05/12 09:07:46;;;;;;;5.80;5.30;;;;;;;;;;5032285;28;20417;-86
2023/05/12 09:10:15;;;;;;;5.80;5.20;;;;;;;;;;5012451;28;20514;-86
2023/05/12 09:13:13;;;;;;;5.88;4.65;;;;;;;;;;5086935;28;20425;-86
2023/05/12 09:15:42;;;;;;;5.45;4.30;;;;;;;;;;5075413;23;20455;-81
2023/05/12 09:18:08;;;;;;;6.90;4.13;;;;;;;;;;5070184;28;20179;-79
2023/05/12 09:20:34;;;;;;;4.60;4.20;;;;;;;;;;5052842;28;20445;-79
2023/05/12 09:23:11;;;;;;;4.72;4.32;;;;;;;;;;5069220;28;20407;-80
2023/05/12 09:25:37;;;;;;;5.32;3.70;;;;;;;;;;5070057;28;20750;-80
2023/05/12 09:28:03;;;;;;;5.03;3.70;;;;;;;;;;5052159;28;20415;-80
2023/05/12 09:30:30;;;;;;;3.90;3.50;;;;;;;;;;5052199;28;20430;-80
2023/05/12 09:33:12;;;;;;;4.22;3.80;;;;;;;;;;5068361;28;20399;-80
2023/05/12 09:35:39;;;;;;;3.90;3.60;;;;;;;;;;5068752;28;20407;-79
2023/05/12 09:38:06;;;;;;;4.00;3.67;;;;;;;;;;5051966;28;20447;-79
2023/05/12 09:40:32;;;;;;;3.85;3.50;;;;;;;;;;5052222;28;20450;-79
2023/05/12 09:42:58;;;;;;;5.15;3.60;;;;;;;;;;5052098;28;20414;-79
2023/05/12 09:45:24;;;;;;;4.20;3.80;;;;;;;;;;5051706;28;20450;-79
2023/05/12 09:47:50;;;;;;;3.90;3.57;;;;;;;;;;5051675;28;20411;-79
2023/05/12 09:50:17;;;;;;;4.13;3.73;;;;;;;;;;5052076;28;20438;-86
2023/05/12 09:52:43;;;;;;;3.42;3.13;;;;;;;;;;5052056;28;20492;-79
2023/05/12 09:55:10;;;;;;;4.28;3.25;;;;;;;;;;5068131;28;20446;-79
2023/05/12 09:57:42;;;;;;;4.30;3.47;;;;;;;;;;5051894;28;20403;-80
2023/05/12 10:00:10;;;;;;;3.72;3.35;;;;;;;;;;5068520;28;20406;-79
2023/05/12 10:02:40;;;;;;;3.35;3.15;;;;;;;;;;5067835;28;20524;-80
2023/05/12 10:05:07;;;;;;;3.80;3.10;;;;;;;;;;5068262;28;20466;-79
2023/05/12 10:07:34;;;;;;;3.95;3.45;;;;;;;;;;5069189;28;20409;-86
2023/05/12 10:10:03;;;;;;;4.28;3.30;;;;;;;;;;5051894;28;20399;-86
2023/05/12 10:12:29;;;;;;;3.33;3.03;;;;;;;;;;5067720;28;20423;-86
2023/05/12 10:14:56;;;;;;;5.90;3.20;;;;;;;;;;5067616;28;20435;-87
2023/05/12 10:17:22;;;;;;;4.60;3.40;;;;;;;;;;5067788;28;20508;-86
2023/05/12 10:19:48;;;;;;;4.20;3.50;;;;;;;;;;5067884;28;20399;-86
2023/05/12 10:22:15;;;;;;;3.67;3.25;;;;;;;;;;5066133;28;20410;-86
2023/05/12 10:24:41;;;;;;;3.63;3.15;;;;;;;;;;5037799;28;20546;-81
2023/05/12 10:27:07;;;;;;;3.85;3.53;;;;;;;;;;5038131;28;20408;-81
2023/05/12 10:29:34;;;;;;;3.90;3.50;;;;;;;;;;5055549;28;20410;-81
2023/05/12 10:32:00;;;;;;;3.65;3.20;;;;;;;;;;5038233;28;20431;-81
2023/05/12 10:34:33;;;;;;;4.18;3.17;;;;;;;;;;5055067;28;20404;-81
2023/05/12 10:37:02;;;;;;;3.70;3.27;;;;;;;;;;5054607;28;20414;-81
2023/05/12 10:39:28;;;;;;;3.70;3.30;;;;;;;;;;5054188;28;20438;-81
2023/05/12 10:42:25;;;;;;;3.30;3.00;;;;;;;;;;5054268;28;20408;-82
2023/05/12 10:44:52;;;;;;;3.25;3.05;;;;;;;;;;5052389;28;20443;-82
2023/05/12 10:47:18;;;;;;;3.50;3.20;;;;;;;;;;5054031;28;20416;-82
2023/05/12 10:49:45;;;;;;;4.72;3.60;;;;;;;;;;5037459;28;20443;-81
2023/05/12 10:52:12;;;;;;;3.67;3.38;;;;;;;;;;5053791;28;20423;-80
2023/05/12 10:54:43;;;;;;;3.75;3.10;;;;;;;;;;5054050;28;20449;-81
2023/05/12 10:57:16;;;;;;;3.30;3.00;;;;;;;;;;5055139;28;20396;-80
2023/05/12 10:59:52;;;;;;;3.00;2.70;;;;;;;;;;5053766;28;20487;-80
2023/05/12 11:02:19;;;;;;;4.47;2.50;;;;;;;;;;5054493;28;20418;-80
2023/05/12 11:04:46;;;;;;;3.33;2.38;;;;;;;;;;5054609;28;20186;-80
2023/05/12 11:07:13;;;;;;;3.95;2.90;;;;;;;;;;5053705;28;20426;-80
2023/05/12 11:09:40;;;;;;;2.92;2.60;;;;;;;;;;5053410;28;20412;-80
2023/05/12 11:12:08;;;;;;;2.88;2.55;;;;;;;;;;5053419;28;20420;-80
2023/05/12 11:14:34;;;;;;;3.10;2.80;;;;;;;;;;5053623;28;20506;-87
2023/05/12 11:17:01;;;;;;;3.22;2.70;;;;;;;;;;5037270;28;20412;-87
2023/05/12 11:19:27;;;;;;;3.08;2.88;;;;;;;;;;5053657;28;20416;-86
2023/05/12 11:21:54;;;;;;;4.28;3.05;;;;;;;;;;5037435;28;20412;-87
2023/05/12 11:24:20;;;;;;;4.40;3.08;;;;;;;;;;5036939;28;20416;-87
2023/05/12 11:26:50;;;;;;;4.43;3.00;;;;;;;;;;5053859;28;20404;-87
2023/05/12 11:29:17;;;;;;;3.90;3.45;;;;;;;;;;5053363;28;20407;-87
2023/05/12 11:31:46;;;;;;;3.67;3.10;;;;;;;;;;5036800;28;20431;-80
2023/05/12 11:34:12;;;;;;;3.30;3.00;;;;;;;;;;5052281;28;20462;-80
2023/05/12 11:36:39;;;;;;;3.60;3.30;;;;;;;;;;5052836;28;20388;-80
2023/05/12 11:39:06;;;;;;;3.57;3.20;;;;;;;;;;5053603;28;20458;-80
2023/05/12 11:41:32;;;;;;;3.08;2.80;;;;;;;;;;5036851;28;20408;-80
2023/05/12 11:43:58;;;;;;;3.83;3.00;;;;;;;;;;5051202;28;20413;-80
2023/05/12 11:46:27;;;;;;;3.83;3.10;;;;;;;;;;5053162;28;20404;-80
2023/05/12 11:48:54;;;;;;;3.30;2.65;;;;;;;;;;5053031;28;20388;-87
2023/05/12 11:51:21;;;;;;;3.83;3.53;;;;;;;;;;5054530;28;20514;-88
2023/05/12 11:53:47;;;;;;;3.22;2.70;;;;;;;;;;5037388;28;20191;-87
2023/05/12 11:56:20;;;;;;;3.40;2.97;;;;;;;;;;5037437;28;20176;-87
2023/05/12 11:58:54;;;;;;;2.88;2.67;;;;;;;;;;5053490;28;20282;-88
2023/05/12 12:01:20;;;;;;;3.60;3.30;;;;;;;;;;5053135;28;20230;-88
2023/05/12 12:03:47;;;;;;;3.20;2.90;;;;;;;;;;5037030;28;20407;-87
2023/05/12 12:06:13;;;;;;;4.15;3.22;;;;;;;;;;5053544;28;20176;-87
2023/05/12 12:09:09;;;;;;;4.63;3.28;;;;;;;;;;5052932;28;20411;-87
2023/05/12 12:11:35;;;;;;;3.50;3.20;;;;;;;;;;5035792;28;20527;-82
2023/05/12 12:14:01;;;;;;;4.07;3.35;;;;;;;;;;5036940;28;20288;-82
2023/05/12 12:16:28;;;;;;;3.65;3.30;;;;;;;;;;5052759;28;20438;-82
2023/05/12 12:18:54;;;;;;;4.72;3.63;;;;;;;;;;5052184;28;20430;-82
2023/05/12 12:21:21;;;;;;;4.10;3.40;;;;;;;;;;5053554;28;20407;-87
2023/05/12 12:23:47;;;;;;;3.80;3.20;;;;;;;;;;5052400;28;20431;-87
2023/05/12 12:26:16;;;;;;;4.38;3.38;;;;;;;;;;5052652;28;20418;-87
2023/05/12 12:28:45;;;;;;;3.80;3.10;;;;;;;;;;5052302;28;20408;-86
2023/05/12 12:31:11;;;;;;;3.77;3.30;;;;;;;;;;5052442;28;20454;-87
2023/05/12 12:33:37;;;;;;;3.80;3.50;;;;;;;;;;5052120;28;20410;-81
2023/05/12 12:36:03;;;;;;;3.80;3.20;;;;;;;;;;5052083;28;20498;-81
2023/05/12 12:38:29;;;;;;;3.92;3.40;;;;;;;;;;5035552;28;20405;-87
2023/05/12 12:40:55;;;;;;;3.90;3.50;;;;;;;;;;5035980;28;20419;-87
2023/05/12 12:43:21;;;;;;;4.20;3.40;;;;;;;;;;5052365;28;20446;-87
2023/05/12 12:45:48;;;;;;;4.47;3.92;;;;;;;;;;5035396;28;20455;-87
2023/05/12 12:48:14;;;;;;;4.28;3.60;;;;;;;;;;5051967;28;20410;-87
2023/05/12 12:50:40;;;;;;;7.95;3.50;;;;;;;;;;5052022;28;20415;-87
2023/05/12 12:53:06;;;;;;;4.10;3.70;;;;;;;;;;5052012;28;20396;-87
2023/05/12 12:55:32;;;;;;;6.27;3.60;;;;;;;;;;5035606;28;20466;-87
2023/05/12 12:57:58;;;;;;;4.72;3.75;;;;;;;;;;5052175;28;20404;-87
2023/05/12 13:00:24;;;;;;;4.80;4.00;;;;;;;;;;5035340;28;20403;-87
2023/05/12 13:02:50;;;;;;;6.10;4.32;;;;;;;;;;5035825;28;20412;-87
2023/05/12 13:05:17;;;;;;;4.70;4.30;;;;;;;;;;5052453;28;20510;-87
2023/05/12 13:07:43;;;;;;;4.40;4.00;;;;;;;;;;5035136;28;20408;-87
2023/05/12 13:10:09;;;;;;;5.13;3.90;;;;;;;;;;5035592;28;20419;-86
2023/05/12 13:12:35;;;;;;;7.20;4.20;;;;;;;;;;5036110;28;20444;-81
2023/05/12 13:15:02;;;;;;;4.20;3.80;;;;;;;;;;5053232;28;20458;-81
2023/05/12 13:17:28;;;;;;;5.70;3.90;;;;;;;;;;5036176;28;20180;-80
2023/05/12 13:19:54;;;;;;;4.38;3.65;;;;;;;;;;5052266;28;20408;-80
2023/05/12 13:22:21;;;;;;;5.43;4.10;;;;;;;;;;5051605;28;20419;-80
2023/05/12 13:24:47;;;;;;;4.20;3.80;;;;;;;;;;5051800;28;20412;-81
2023/05/12 13:27:13;;;;;;;4.78;3.83;;;;;;;;;;5052171;28;20437;-81
2023/05/12 13:29:41;;;;;;;7.25;4.88;;;;;;;;;;5035151;28;20411;-81
2023/05/12 13:32:07;;;;;;;7.40;6.20;;;;;;;;;;5035164;28;20533;-81
2023/05/12 13:34:33;;;;;;;3.92;3.63;;;;;;;;;;5052350;28;20214;-80
2023/05/12 13:36:59;;;;;;;4.72;4.10;;;;;;;;;;5051543;28;20396;-81
2023/05/12 13:39:25;;;;;;;6.10;4.50;;;;;;;;;;5035050;28;20394;-81
2023/05/12 13:41:51;;;;;;;3.85;3.55;;;;;;;;;;5035817;28;20410;-80
2023/05/12 13:44:18;;;;;;;5.40;4.00;;;;;;;;;;5036150;28;20269;-83
2023/05/12 13:46:44;;;;;;;4.10;3.70;;;;;;;;;;5034904;28;20408;-83
2023/05/12 13:49:11;;;;;;;4.65;4.25;;;;;;;;;;5034841;28;20403;-83
2023/05/12 13:51:37;;;;;;;4.50;4.10;;;;;;;;;;5034853;28;20435;-83
2023/05/12 13:54:03;;;;;;;5.38;4.80;;;;;;;;;;5051240;28;20427;-83
2023/05/12 13:56:29;;;;;;;6.15;4.68;;;;;;;;;;5034746;28;20413;-83
2023/05/12 13:58:55;;;;;;;5.65;5.03;;;;;;;;;;5037198;28;20407;-83
2023/05/12 14:01:21;;;;;;;6.28;4.47;;;;;;;;;;5054134;28;20407;-81
2023/05/12 14:03:47;;;;;;;5.50;5.00;;;;;;;;;;5034866;28;20426;-81
2023/05/12 14:06:13;;;;;;;5.80;4.50;;;;;;;;;;5019130;28;20424;-81
2023/05/12 14:08:40;;;;;;;5.88;4.95;;;;;;;;;;5035505;28;20416;-88
2023/05/12 14:11:06;;;;;;;5.60;5.00;;;;;;;;;;5018877;28;20503;-87
2023/05/12 14:13:32;;;;;;;5.45;4.95;;;;;;;;;;5035047;28;20464;-87
2023/05/12 14:15:58;;;;;;;5.25;4.63;;;;;;;;;;5035538;28;20437;-87
2023/05/12 14:18:24;;;;;;;4.97;4.50;;;;;;;;;;5018428;28;20477;-82
2023/05/12 14:20:51;;;;;;;4.85;4.30;;;;;;;;;;5035641;28;20183;-82
2023/05/12 14:23:17;;;;;;;5.32;4.50;;;;;;;;;;5035727;28;20169;-82
2023/05/12 14:25:43;;;;;;;6.35;4.80;;;;;;;;;;5035259;28;20463;-82
2023/05/12 14:28:09;;;;;;;6.50;4.72;;;;;;;;;;5018571;28;20452;-83